sensor_id;sensor_type;location;lat;lon;timestamp;temperature;humidity
13409;DHT22;6775;49.574;11.170;2023-03-01T00:01:41;-0.30;99.90
13409;DHT22;6775;49.574;11.170;2023-03-01T00:04:09;-0.30;99.90
13409;DHT22;6775;49.574;11.170;2023-03-01T00:06:37;-0.30;99.90
13409;DHT22;6775;49.574;11.170;2023-03-01T00:09:06;-0.30;99.90
13409;DHT22;6775;49.574;11.170;2023-03-01T00:11:35;-0.20;99.90
13409;DHT22;6775;49.574;11.170;2023-03-01T00:14:03;-0.20;99.90
13409;DHT22;6775;49.574;11.170;2023-03-01T00:16:35;-0.30;99.90
13409;DHT22;6775;49.574;11.170;2023-03-01T00:19:06;-0.30;99.90
13409;DHT22;6775;49.574;11.170;2023-03-01T00:21:34;-0.30;99.90
13409;DHT22;6775;49.574;11.170;2023-03-01T00:24:02;-0.30;99.90
13409;DHT22;6775;49.574;11.170;2023-03-01T00:26:30;-0.20;99.90
13409;DHT22;6775;49.574;11.170;2023-03-01T00:29:00;-0.30;99.90
13409;DHT22;6775;49.574;11.170;2023-03-01T00:31:30;-0.30;99.90
13409;DHT22;6775;49.574;11.170;2023-03-01T00:34:01;-0.40;99.90
13409;DHT22;6775;49.574;11.170;2023-03-01T00:36:31;-0.50;99.90
13409;DHT22;6775;49.574;11.170;2023-03-01T00:38:59;-0.50;99.90
13409;DHT22;6775;49.574;11.170;2023-03-01T00:41:27;-0.60;99.90
13409;DHT22;6775;49.574;11.170;2023-03-01T00:43:55;-0.60;99.90
13409;DHT22;6775;49.574;11.170;2023-03-01T00:46:26;-0.60;99.90
13409;DHT22;6775;49.574;11.170;2023-03-01T00:48:54;-0.70;99.90
13409;DHT22;6775;49.574;11.170;2023-03-01T00:51:23;-0.70;99.90
13409;DHT22;6775;49.574;11.170;2023-03-01T00:53:52;-0.80;99.90
13409;DHT22;6775;49.574;11.170;2023-03-01T00:56:21;-0.80;99.90
13409;DHT22;6775;49.574;11.170;2023-03-01T00:58:49;-0.90;99.90
13409;DHT22;6775;49.574;11.170;2023-03-01T01:01:18;-0.90;99.90
13409;DHT22;6775;49.574;11.170;2023-03-01T01:03:50;-1.00;99.90
13409;DHT22;6775;49.574;11.170;2023-03-01T01:06:20;-0.90;99.90
13409;DHT22;6775;49.574;11.170;2023-03-01T01:08:50;-0.90;99.90
13409;DHT22;6775;49.574;11.170;2023-03-01T01:11:18;-0.80;99.90
13409;DHT22;6775;49.574;11.170;2023-03-01T01:13:47;-0.80;99.90
13409;DHT22;6775;49.574;11.170;2023-03-01T01:16:16;-0.70;99.90
13409;DHT22;6775;49.574;11.170;2023-03-01T01:18:45;-0.60;99.90
13409;DHT22;6775;49.574;11.170;2023-03-01T01:21:17;-0.60;99.90
13409;DHT22;6775;49.574;11.170;2023-03-01T01:23:46;-0.60;99.90
13409;DHT22;6775;49.574;11.170;2023-03-01T01:26:16;-0.50;99.90
13409;DHT22;6775;49.574;11.170;2023-03-01T01:28:44;-0.50;99.90
13409;DHT22;6775;49.574;11.170;2023-03-01T01:31:12;-0.50;99.90
13409;DHT22;6775;49.574;11.170;2023-03-01T01:33:40;-0.50;99.90
13409;DHT22;6775;49.574;11.170;2023-03-01T01:36:08;-0.50;99.90
13409;DHT22;6775;49.574;11.170;2023-03-01T01:38:38;-0.60;99.90
13409;DHT22;6775;49.574;11.170;2023-03-01T01:41:06;-0.60;99.90
13409;DHT22;6775;49.574;11.170;2023-03-01T01:43:36;-0.60;99.90
13409;DHT22;6775;49.574;11.170;2023-03-01T01:46:14;-0.70;99.90
13409;DHT22;6775;49.574;11.170;2023-03-01T01:48:46;-0.70;99.90
13409;DHT22;6775;49.574;11.170;2023-03-01T01:51:19;-0.80;99.90
13409;DHT22;6775;49.574;11.170;2023-03-01T01:53:53;-0.80;99.90
13409;DHT22;6775;49.574;11.170;2023-03-01T01:56:24;-0.80;99.90
13409;DHT22;6775;49.574;11.170;2023-03-01T01:58:53;-0.80;99.90
13409;DHT22;6775;49.574;11.170;2023-03-01T02:01:22;-0.80;99.90
13409;DHT22;6775;49.574;11.170;2023-03-01T02:03:50;-0.90;99.90
13409;DHT22;6775;49.574;11.170;2023-03-01T02:06:28;-1.00;99.90
13409;DHT22;6775;49.574;11.170;2023-03-01T02:09:05;-1.00;99.90
13409;DHT22;6775;49.574;11.170;2023-03-01T02:11:34;-1.10;99.90
13409;DHT22;6775;49.574;11.170;2023-03-01T02:14:04;-1.10;99.90
13409;DHT22;6775;49.574;11.170;2023-03-01T02:16:32;-1.10;99.90
13409;DHT22;6775;49.574;11.170;2023-03-01T02:19:01;-1.10;99.90
13409;DHT22;6775;49.574;11.170;2023-03-01T02:21:38;-1.10;99.90
13409;DHT22;6775;49.574;11.170;2023-03-01T02:24:19;-1.00;99.90
13409;DHT22;6775;49.574;11.170;2023-03-01T02:26:53;-1.00;99.90
13409;DHT22;6775;49.574;11.170;2023-03-01T02:29:24;-0.80;99.90
13409;DHT22;6775;49.574;11.170;2023-03-01T02:31:55;-0.80;99.90
13409;DHT22;6775;49.574;11.170;2023-03-01T02:34:25;-0.70;99.90
13409;DHT22;6775;49.574;11.170;2023-03-01T02:36:56;-0.60;99.90
13409;DHT22;6775;49.574;11.170;2023-03-01T02:39:27;-0.60;99.90
13409;DHT22;6775;49.574;11.170;2023-03-01T02:41:56;-0.60;99.90
13409;DHT22;6775;49.574;11.170;2023-03-01T02:44:26;-0.70;99.90
13409;DHT22;6775;49.574;11.170;2023-03-01T02:46:56;-0.80;99.90
13409;DHT22;6775;49.574;11.170;2023-03-01T02:49:26;-0.80;99.90
13409;DHT22;6775;49.574;11.170;2023-03-01T02:52:12;-0.90;99.90
13409;DHT22;6775;49.574;11.170;2023-03-01T02:54:48;-0.90;99.90
13409;DHT22;6775;49.574;11.170;2023-03-01T02:57:18;-1.00;99.90
13409;DHT22;6775;49.574;11.170;2023-03-01T02:59:49;-1.10;99.90
13409;DHT22;6775;49.574;11.170;2023-03-01T03:02:20;-1.20;99.90
13409;DHT22;6775;49.574;11.170;2023-03-01T03:05:04;-1.30;99.90
13409;DHT22;6775;49.574;11.170;2023-03-01T03:07:36;-1.40;99.90
13409;DHT22;6775;49.574;11.170;2023-03-01T03:10:06;-1.50;99.90
13409;DHT22;6775;49.574;11.170;2023-03-01T03:12:35;-1.60;99.90
13409;DHT22;6775;49.574;11.170;2023-03-01T03:15:06;-1.60;99.90
13409;DHT22;6775;49.574;11.170;2023-03-01T03:17:35;-1.70;99.90
13409;DHT22;6775;49.574;11.170;2023-03-01T03:20:05;-1.80;99.90
13409;DHT22;6775;49.574;11.170;2023-03-01T03:22:37;-1.90;99.90
13409;DHT22;6775;49.574;11.170;2023-03-01T03:25:06;-1.80;99.90
13409;DHT22;6775;49.574;11.170;2023-03-01T03:27:36;-1.90;99.90
13409;DHT22;6775;49.574;11.170;2023-03-01T03:30:10;-1.90;99.90
13409;DHT22;6775;49.574;11.170;2023-03-01T03:32:39;-1.90;99.90
13409;DHT22;6775;49.574;11.170;2023-03-01T03:35:09;-1.90;99.90
13409;DHT22;6775;49.574;11.170;2023-03-01T03:37:37;-1.90;99.90
13409;DHT22;6775;49.574;11.170;2023-03-01T03:40:22;-1.70;99.90
13409;DHT22;6775;49.574;11.170;2023-03-01T03:42:50;-1.60;99.90
13409;DHT22;6775;49.574;11.170;2023-03-01T03:45:19;-1.50;99.90
13409;DHT22;6775;49.574;11.170;2023-03-01T03:47:47;-1.50;99.90
13409;DHT22;6775;49.574;11.170;2023-03-01T03:50:16;-1.60;99.90
13409;DHT22;6775;49.574;11.170;2023-03-01T03:52:44;-1.60;99.90
13409;DHT22;6775;49.574;11.170;2023-03-01T03:55:12;-1.50;99.90
13409;DHT22;6775;49.574;11.170;2023-03-01T03:57:41;-1.40;99.90
13409;DHT22;6775;49.574;11.170;2023-03-01T04:00:11;-1.30;99.90
13409;DHT22;6775;49.574;11.170;2023-03-01T04:02:42;-1.30;99.90
13409;DHT22;6775;49.574;11.170;2023-03-01T04:05:11;-1.30;99.90
13409;DHT22;6775;49.574;11.170;2023-03-01T04:07:41;-1.30;99.90
13409;DHT22;6775;49.574;11.170;2023-03-01T04:10:11;-1.30;99.90
13409;DHT22;6775;49.574;11.170;2023-03-01T04:12:39;-1.30;99.90
13409;DHT22;6775;49.574;11.170;2023-03-01T04:15:11;-1.30;99.90
13409;DHT22;6775;49.574;11.170;2023-03-01T04:17:45;-1.20;99.90
13409;DHT22;6775;49.574;11.170;2023-03-01T04:20:15;-1.20;99.90
13409;DHT22;6775;49.574;11.170;2023-03-01T04:22:44;-1.20;99.90
13409;DHT22;6775;49.574;11.170;2023-03-01T04:25:13;-1.20;99.90
13409;DHT22;6775;49.574;11.170;2023-03-01T04:27:41;-1.30;99.90
13409;DHT22;6775;49.574;11.170;2023-03-01T04:30:10;-1.40;99.90
13409;DHT22;6775;49.574;11.170;2023-03-01T04:32:38;-1.50;99.90
13409;DHT22;6775;49.574;11.170;2023-03-01T04:35:08;-1.50;99.90
13409;DHT22;6775;49.574;11.170;2023-03-01T04:37:36;-1.50;99.90
13409;DHT22;6775;49.574;11.170;2023-03-01T04:40:04;-1.50;99.90
13409;DHT22;6775;49.574;11.170;2023-03-01T04:42:42;-1.50;99.90
13409;DHT22;6775;49.574;11.170;2023-03-01T04:45:10;-1.50;99.90
13409;DHT22;6775;49.574;11.170;2023-03-01T04:47:40;-1.50;99.90
13409;DHT22;6775;49.574;11.170;2023-03-01T04:50:12;-1.40;99.90
13409;DHT22;6775;49.574;11.170;2023-03-01T04:52:40;-1.30;99.90
13409;DHT22;6775;49.574;11.170;2023-03-01T04:55:09;-1.30;99.90
13409;DHT22;6775;49.574;11.170;2023-03-01T04:57:37;-1.30;99.90
13409;DHT22;6775;49.574;11.170;2023-03-01T05:00:08;-1.30;99.90
13409;DHT22;6775;49.574;11.170;2023-03-01T05:02:50;-1.40;99.90
13409;DHT22;6775;49.574;11.170;2023-03-01T05:05:25;-1.50;99.90
13409;DHT22;6775;49.574;11.170;2023-03-01T05:07:55;-1.60;99.90
13409;DHT22;6775;49.574;11.170;2023-03-01T05:10:23;-1.70;99.90
13409;DHT22;6775;49.574;11.170;2023-03-01T05:12:51;-1.90;99.90
13409;DHT22;6775;49.574;11.170;2023-03-01T05:15:19;-2.00;99.90
13409;DHT22;6775;49.574;11.170;2023-03-01T05:17:52;-2.10;99.90
13409;DHT22;6775;49.574;11.170;2023-03-01T05:20:22;-2.20;99.90
13409;DHT22;6775;49.574;11.170;2023-03-01T05:22:51;-2.20;99.90
13409;DHT22;6775;49.574;11.170;2023-03-01T05:25:18;-2.20;99.90
13409;DHT22;6775;49.574;11.170;2023-03-01T05:27:48;-2.10;99.90
13409;DHT22;6775;49.574;11.170;2023-03-01T05:30:16;-2.10;99.90
13409;DHT22;6775;49.574;11.170;2023-03-01T05:32:46;-2.10;99.90
13409;DHT22;6775;49.574;11.170;2023-03-01T05:35:16;-2.10;99.90
13409;DHT22;6775;49.574;11.170;2023-03-01T05:37:47;-2.10;99.90
13409;DHT22;6775;49.574;11.170;2023-03-01T05:40:17;-2.20;99.90
13409;DHT22;6775;49.574;11.170;2023-03-01T05:42:47;-2.20;99.90
13409;DHT22;6775;49.574;11.170;2023-03-01T05:45:16;-2.20;99.90
13409;DHT22;6775;49.574;11.170;2023-03-01T05:47:45;-2.20;99.90
13409;DHT22;6775;49.574;11.170;2023-03-01T05:50:18;-2.20;99.90
13409;DHT22;6775;49.574;11.170;2023-03-01T05:52:48;-2.20;99.90
13409;DHT22;6775;49.574;11.170;2023-03-01T05:55:17;-2.20;99.90
13409;DHT22;6775;49.574;11.170;2023-03-01T05:57:46;-2.20;99.90
13409;DHT22;6775;49.574;11.170;2023-03-01T06:00:17;-2.20;99.90
13409;DHT22;6775;49.574;11.170;2023-03-01T06:02:45;-2.10;99.90
13409;DHT22;6775;49.574;11.170;2023-03-01T06:05:13;-2.10;99.90
13409;DHT22;6775;49.574;11.170;2023-03-01T06:07:41;-2.20;99.90
13409;DHT22;6775;49.574;11.170;2023-03-01T06:10:13;-2.20;99.90
13409;DHT22;6775;49.574;11.170;2023-03-01T06:12:42;-2.30;99.90
13409;DHT22;6775;49.574;11.170;2023-03-01T06:15:12;-2.40;99.90
13409;DHT22;6775;49.574;11.170;2023-03-01T06:17:42;-2.30;99.90
13409;DHT22;6775;49.574;11.170;2023-03-01T06:20:12;-2.30;99.90
13409;DHT22;6775;49.574;11.170;2023-03-01T06:22:40;-2.10;99.90
13409;DHT22;6775;49.574;11.170;2023-03-01T06:25:09;-2.00;99.90
13409;DHT22;6775;49.574;11.170;2023-03-01T06:27:40;-1.90;99.90
13409;DHT22;6775;49.574;11.170;2023-03-01T06:30:10;-1.70;99.90
13409;DHT22;6775;49.574;11.170;2023-03-01T06:32:38;-1.60;99.90
13409;DHT22;6775;49.574;11.170;2023-03-01T06:35:09;-1.50;99.90
13409;DHT22;6775;49.574;11.170;2023-03-01T06:37:37;-1.40;99.90
13409;DHT22;6775;49.574;11.170;2023-03-01T06:40:06;-1.20;99.90
13409;DHT22;6775;49.574;11.170;2023-03-01T06:42:35;-1.20;99.90
13409;DHT22;6775;49.574;11.170;2023-03-01T06:45:06;-1.10;99.90
13409;DHT22;6775;49.574;11.170;2023-03-01T06:47:34;-1.00;99.90
13409;DHT22;6775;49.574;11.170;2023-03-01T06:50:03;-0.90;99.90
13409;DHT22;6775;49.574;11.170;2023-03-01T06:52:31;-0.80;99.90
13409;DHT22;6775;49.574;11.170;2023-03-01T06:54:59;-0.70;99.90
13409;DHT22;6775;49.574;11.170;2023-03-01T06:57:27;-0.60;99.90
13409;DHT22;6775;49.574;11.170;2023-03-01T06:59:55;-0.50;99.90
13409;DHT22;6775;49.574;11.170;2023-03-01T07:02:24;-0.40;99.90
13409;DHT22;6775;49.574;11.170;2023-03-01T07:04:52;-0.30;99.90
13409;DHT22;6775;49.574;11.170;2023-03-01T07:07:20;-0.20;99.90
13409;DHT22;6775;49.574;11.170;2023-03-01T07:09:49;-0.10;99.90
13409;DHT22;6775;49.574;11.170;2023-03-01T07:12:16;0.00;99.90
13409;DHT22;6775;49.574;11.170;2023-03-01T07:14:44;0.20;99.90
13409;DHT22;6775;49.574;11.170;2023-03-01T07:17:12;0.30;99.90
13409;DHT22;6775;49.574;11.170;2023-03-01T07:19:41;0.40;99.90
13409;DHT22;6775;49.574;11.170;2023-03-01T07:22:09;0.50;99.90
13409;DHT22;6775;49.574;11.170;2023-03-01T07:24:37;0.60;99.90
13409;DHT22;6775;49.574;11.170;2023-03-01T07:27:04;0.70;99.90
13409;DHT22;6775;49.574;11.170;2023-03-01T07:29:32;0.90;99.90
13409;DHT22;6775;49.574;11.170;2023-03-01T07:32:03;1.10;99.90
13409;DHT22;6775;49.574;11.170;2023-03-01T07:34:31;1.30;99.90
13409;DHT22;6775;49.574;11.170;2023-03-01T07:37:00;1.40;99.90
13409;DHT22;6775;49.574;11.170;2023-03-01T07:39:28;1.60;99.90
13409;DHT22;6775;49.574;11.170;2023-03-01T07:41:56;1.80;99.90
13409;DHT22;6775;49.574;11.170;2023-03-01T07:44:24;2.00;99.90
13409;DHT22;6775;49.574;11.170;2023-03-01T07:46:51;2.10;99.90
13409;DHT22;6775;49.574;11.170;2023-03-01T07:49:23;3.20;99.90
13409;DHT22;6775;49.574;11.170;2023-03-01T07:51:52;2.40;99.90
13409;DHT22;6775;49.574;11.170;2023-03-01T07:54:22;2.50;99.90
13409;DHT22;6775;49.574;11.170;2023-03-01T07:56:49;2.60;99.90
13409;DHT22;6775;49.574;11.170;2023-03-01T07:59:17;2.60;99.90
13409;DHT22;6775;49.574;11.170;2023-03-01T08:01:45;2.70;99.90
13409;DHT22;6775;49.574;11.170;2023-03-01T08:04:13;2.70;99.90
13409;DHT22;6775;49.574;11.170;2023-03-01T08:06:41;2.80;99.90
13409;DHT22;6775;49.574;11.170;2023-03-01T08:09:09;2.90;99.90
13409;DHT22;6775;49.574;11.170;2023-03-01T08:11:38;2.90;99.90
13409;DHT22;6775;49.574;11.170;2023-03-01T08:14:06;3.00;99.90
13409;DHT22;6775;49.574;11.170;2023-03-01T08:16:34;3.00;99.90
13409;DHT22;6775;49.574;11.170;2023-03-01T08:19:04;3.20;99.90
13409;DHT22;6775;49.574;11.170;2023-03-01T08:21:32;3.40;99.90
13409;DHT22;6775;49.574;11.170;2023-03-01T08:24:01;3.50;99.90
13409;DHT22;6775;49.574;11.170;2023-03-01T08:26:29;3.70;99.90
13409;DHT22;6775;49.574;11.170;2023-03-01T08:29:00;3.90;99.90
13409;DHT22;6775;49.574;11.170;2023-03-01T08:31:30;4.20;99.90
13409;DHT22;6775;49.574;11.170;2023-03-01T08:34:00;4.40;99.90
13409;DHT22;6775;49.574;11.170;2023-03-01T08:36:31;4.50;99.80
13409;DHT22;6775;49.574;11.170;2023-03-01T08:38:59;4.80;99.80
13409;DHT22;6775;49.574;11.170;2023-03-01T08:41:28;5.10;98.30
13409;DHT22;6775;49.574;11.170;2023-03-01T08:43:56;5.20;98.40
13409;DHT22;6775;49.574;11.170;2023-03-01T08:46:28;5.30;97.40
13409;DHT22;6775;49.574;11.170;2023-03-01T08:48:57;5.60;97.10
13409;DHT22;6775;49.574;11.170;2023-03-01T08:51:26;7.10;94.00
13409;DHT22;6775;49.574;11.170;2023-03-01T08:53:53;8.90;87.40
13409;DHT22;6775;49.574;11.170;2023-03-01T08:56:21;11.00;74.90
13409;DHT22;6775;49.574;11.170;2023-03-01T08:58:49;12.70;65.50
13409;DHT22;6775;49.574;11.170;2023-03-01T09:01:19;14.50;55.20
13409;DHT22;6775;49.574;11.170;2023-03-01T09:03:48;15.80;49.80
13409;DHT22;6775;49.574;11.170;2023-03-01T09:06:16;16.80;47.80
13409;DHT22;6775;49.574;11.170;2023-03-01T09:08:45;18.00;44.00
13409;DHT22;6775;49.574;11.170;2023-03-01T09:11:15;18.50;41.00
13409;DHT22;6775;49.574;11.170;2023-03-01T09:13:43;19.20;39.10
13409;DHT22;6775;49.574;11.170;2023-03-01T09:16:13;19.20;39.50
13409;DHT22;6775;49.574;11.170;2023-03-01T09:18:41;19.20;37.30
13409;DHT22;6775;49.574;11.170;2023-03-01T09:21:12;19.70;38.10
13409;DHT22;6775;49.574;11.170;2023-03-01T09:23:41;20.40;36.30
13409;DHT22;6775;49.574;11.170;2023-03-01T09:26:10;20.20;35.00
13409;DHT22;6775;49.574;11.170;2023-03-01T09:28:38;20.40;35.10
13409;DHT22;6775;49.574;11.170;2023-03-01T09:31:07;21.50;35.80
13409;DHT22;6775;49.574;11.170;2023-03-01T09:33:35;22.10;33.20
13409;DHT22;6775;49.574;11.170;2023-03-01T09:36:05;23.20;33.20
13409;DHT22;6775;49.574;11.170;2023-03-01T09:38:34;23.60;30.90
13409;DHT22;6775;49.574;11.170;2023-03-01T09:41:08;23.60;30.40
13409;DHT22;6775;49.574;11.170;2023-03-01T09:43:41;23.10;30.10
13409;DHT22;6775;49.574;11.170;2023-03-01T09:46:11;24.20;30.10
13409;DHT22;6775;49.574;11.170;2023-03-01T09:48:48;25.20;29.40
13409;DHT22;6775;49.574;11.170;2023-03-01T09:51:19;25.00;28.80
13409;DHT22;6775;49.574;11.170;2023-03-01T09:53:50;25.00;28.50
13409;DHT22;6775;49.574;11.170;2023-03-01T09:56:24;25.20;28.20
13409;DHT22;6775;49.574;11.170;2023-03-01T09:58:58;25.50;28.20
13409;DHT22;6775;49.574;11.170;2023-03-01T10:01:33;25.80;27.70
13409;DHT22;6775;49.574;11.170;2023-03-01T10:04:12;26.10;27.10
13409;DHT22;6775;49.574;11.170;2023-03-01T10:06:54;25.80;26.70
13409;DHT22;6775;49.574;11.170;2023-03-01T10:09:28;25.30;26.90
13409;DHT22;6775;49.574;11.170;2023-03-01T10:11:57;24.40;27.50
13409;DHT22;6775;49.574;11.170;2023-03-01T10:14:32;25.20;27.60
13409;DHT22;6775;49.574;11.170;2023-03-01T10:17:03;25.90;27.40
13409;DHT22;6775;49.574;11.170;2023-03-01T10:19:33;26.30;26.30
13409;DHT22;6775;49.574;11.170;2023-03-01T10:22:09;25.50;26.00
13409;DHT22;6775;49.574;11.170;2023-03-01T10:24:40;25.20;27.30
13409;DHT22;6775;49.574;11.170;2023-03-01T10:27:11;25.90;26.90
13409;DHT22;6775;49.574;11.170;2023-03-01T10:29:48;26.20;26.30
13409;DHT22;6775;49.574;11.170;2023-03-01T10:32:18;26.30;26.30
13409;DHT22;6775;49.574;11.170;2023-03-01T10:34:50;26.80;26.30
13409;DHT22;6775;49.574;11.170;2023-03-01T10:37:20;26.10;25.70
13409;DHT22;6775;49.574;11.170;2023-03-01T10:40:01;24.80;26.70
13409;DHT22;6775;49.574;11.170;2023-03-01T10:42:34;24.10;27.30
13409;DHT22;6775;49.574;11.170;2023-03-01T10:45:25;23.50;27.60
13409;DHT22;6775;49.574;11.170;2023-03-01T10:48:04;23.60;27.80
13409;DHT22;6775;49.574;11.170;2023-03-01T10:50:32;23.70;27.80
13409;DHT22;6775;49.574;11.170;2023-03-01T10:53:04;23.40;28.20
13409;DHT22;6775;49.574;11.170;2023-03-01T10:55:34;23.80;27.90
13409;DHT22;6775;49.574;11.170;2023-03-01T10:58:09;23.70;28.10
13409;DHT22;6775;49.574;11.170;2023-03-01T11:00:48;23.40;28.30
13409;DHT22;6775;49.574;11.170;2023-03-01T11:03:20;23.30;27.90
13409;DHT22;6775;49.574;11.170;2023-03-01T11:05:58;23.60;28.70
13409;DHT22;6775;49.574;11.170;2023-03-01T11:08:35;24.70;28.00
13409;DHT22;6775;49.574;11.170;2023-03-01T11:11:23;25.60;27.60
13409;DHT22;6775;49.574;11.170;2023-03-01T11:13:57;26.40;26.90
13409;DHT22;6775;49.574;11.170;2023-03-01T11:16:28;27.20;26.10
13409;DHT22;6775;49.574;11.170;2023-03-01T11:19:14;27.20;25.80
13409;DHT22;6775;49.574;11.170;2023-03-01T11:21:50;26.90;25.50
13409;DHT22;6775;49.574;11.170;2023-03-01T11:24:20;25.90;26.30
13409;DHT22;6775;49.574;11.170;2023-03-01T11:26:54;25.50;26.50
13409;DHT22;6775;49.574;11.170;2023-03-01T11:29:29;24.70;27.30
13409;DHT22;6775;49.574;11.170;2023-03-01T11:32:08;24.90;27.30
13409;DHT22;6775;49.574;11.170;2023-03-01T11:34:45;24.80;27.50
13409;DHT22;6775;49.574;11.170;2023-03-01T11:37:21;24.50;27.40
13409;DHT22;6775;49.574;11.170;2023-03-01T11:39:58;24.60;27.70
13409;DHT22;6775;49.574;11.170;2023-03-01T11:42:37;24.60;27.90
13409;DHT22;6775;49.574;11.170;2023-03-01T11:45:11;25.10;27.90
13409;DHT22;6775;49.574;11.170;2023-03-01T11:47:58;26.00;27.40
13409;DHT22;6775;49.574;11.170;2023-03-01T11:50:31;26.80;27.00
13409;DHT22;6775;49.574;11.170;2023-03-01T11:53:25;27.10;26.00
13409;DHT22;6775;49.574;11.170;2023-03-01T11:56:04;27.10;26.20
13409;DHT22;6775;49.574;11.170;2023-03-01T11:58:52;27.20;26.40
13409;DHT22;6775;49.574;11.170;2023-03-01T12:01:30;27.00;25.70
13409;DHT22;6775;49.574;11.170;2023-03-01T12:04:23;26.40;26.70
13409;DHT22;6775;49.574;11.170;2023-03-01T12:06:57;26.50;26.50
13409;DHT22;6775;49.574;11.170;2023-03-01T12:09:39;26.00;26.50
13409;DHT22;6775;49.574;11.170;2023-03-01T12:12:26;25.50;27.00
13409;DHT22;6775;49.574;11.170;2023-03-01T12:15:21;25.40;27.40
13409;DHT22;6775;49.574;11.170;2023-03-01T12:21:18;26.20;27.30
13409;DHT22;6775;49.574;11.170;2023-03-01T12:26:50;25.50;27.50
13409;DHT22;6775;49.574;11.170;2023-03-01T12:29:25;25.20;28.10
13409;DHT22;6775;49.574;11.170;2023-03-01T12:32:17;25.30;27.50
13409;DHT22;6775;49.574;11.170;2023-03-01T12:35:02;25.10;27.30
13409;DHT22;6775;49.574;11.170;2023-03-01T12:37:46;25.20;27.90
13409;DHT22;6775;49.574;11.170;2023-03-01T12:43:30;24.90;28.30
13409;DHT22;6775;49.574;11.170;2023-03-01T12:46:21;23.90;28.70
13409;DHT22;6775;49.574;11.170;2023-03-01T12:48:59;23.60;29.50
13409;DHT22;6775;49.574;11.170;2023-03-01T12:51:32;23.70;29.70
13409;DHT22;6775;49.574;11.170;2023-03-01T12:54:07;23.80;29.30
13409;DHT22;6775;49.574;11.170;2023-03-01T12:56:39;23.80;29.30
13409;DHT22;6775;49.574;11.170;2023-03-01T12:59:13;23.40;29.70
13409;DHT22;6775;49.574;11.170;2023-03-01T13:01:49;23.50;30.10
13409;DHT22;6775;49.574;11.170;2023-03-01T13:04:43;23.50;30.20
13409;DHT22;6775;49.574;11.170;2023-03-01T13:07:23;23.20;30.30
13409;DHT22;6775;49.574;11.170;2023-03-01T13:10:02;23.30;30.60
13409;DHT22;6775;49.574;11.170;2023-03-01T13:15:34;23.20;30.40
13409;DHT22;6775;49.574;11.170;2023-03-01T13:18:06;22.10;30.90
13409;DHT22;6775;49.574;11.170;2023-03-01T13:20:55;21.90;32.00
13409;DHT22;6775;49.574;11.170;2023-03-01T13:23:26;21.50;31.60
13409;DHT22;6775;49.574;11.170;2023-03-01T13:26:03;21.30;31.70
13409;DHT22;6775;49.574;11.170;2023-03-01T13:28:40;21.20;32.10
13409;DHT22;6775;49.574;11.170;2023-03-01T13:31:10;20.90;32.90
13409;DHT22;6775;49.574;11.170;2023-03-01T13:33:42;20.80;33.10
13409;DHT22;6775;49.574;11.170;2023-03-01T13:36:47;20.10;33.80
13409;DHT22;6775;49.574;11.170;2023-03-01T13:39:31;19.90;34.70
13409;DHT22;6775;49.574;11.170;2023-03-01T13:42:33;19.60;35.20
13409;DHT22;6775;49.574;11.170;2023-03-01T13:45:05;19.40;35.80
13409;DHT22;6775;49.574;11.170;2023-03-01T13:47:42;19.20;35.70
13409;DHT22;6775;49.574;11.170;2023-03-01T13:50:18;18.60;35.90
13409;DHT22;6775;49.574;11.170;2023-03-01T13:52:53;18.20;37.00
13409;DHT22;6775;49.574;11.170;2023-03-01T13:55:29;17.80;38.00
13409;DHT22;6775;49.574;11.170;2023-03-01T13:58:00;17.60;38.30
13409;DHT22;6775;49.574;11.170;2023-03-01T14:00:33;17.80;38.20
13409;DHT22;6775;49.574;11.170;2023-03-01T14:03:06;17.60;38.80
13409;DHT22;6775;49.574;11.170;2023-03-01T14:05:37;17.60;38.60
13409;DHT22;6775;49.574;11.170;2023-03-01T14:08:19;17.60;39.30
13409;DHT22;6775;49.574;11.170;2023-03-01T14:11:15;17.50;38.80
13409;DHT22;6775;49.574;11.170;2023-03-01T14:13:54;17.00;39.10
13409;DHT22;6775;49.574;11.170;2023-03-01T14:16:36;16.30;39.90
13409;DHT22;6775;49.574;11.170;2023-03-01T14:19:16;15.60;42.50
13409;DHT22;6775;49.574;11.170;2023-03-01T14:21:59;14.80;43.20
13409;DHT22;6775;49.574;11.170;2023-03-01T14:24:35;13.90;44.50
13409;DHT22;6775;49.574;11.170;2023-03-01T14:27:10;13.20;45.80
13409;DHT22;6775;49.574;11.170;2023-03-01T14:29:40;12.50;47.30
13409;DHT22;6775;49.574;11.170;2023-03-01T14:32:12;12.00;49.40
13409;DHT22;6775;49.574;11.170;2023-03-01T14:34:46;11.40;50.20
13409;DHT22;6775;49.574;11.170;2023-03-01T14:37:20;10.90;50.40
13409;DHT22;6775;49.574;11.170;2023-03-01T14:39:51;10.50;51.80
13409;DHT22;6775;49.574;11.170;2023-03-01T14:42:21;10.30;54.10
13409;DHT22;6775;49.574;11.170;2023-03-01T14:44:51;10.10;53.70
13409;DHT22;6775;49.574;11.170;2023-03-01T14:47:26;9.90;55.10
13409;DHT22;6775;49.574;11.170;2023-03-01T14:49:58;9.70;55.60
13409;DHT22;6775;49.574;11.170;2023-03-01T14:52:33;9.50;55.90
13409;DHT22;6775;49.574;11.170;2023-03-01T14:55:06;9.40;56.60
13409;DHT22;6775;49.574;11.170;2023-03-01T14:57:35;9.30;57.80
13409;DHT22;6775;49.574;11.170;2023-03-01T15:00:07;9.10;57.40
13409;DHT22;6775;49.574;11.170;2023-03-01T15:02:35;9.00;58.20
13409;DHT22;6775;49.574;11.170;2023-03-01T15:05:06;8.90;58.40
13409;DHT22;6775;49.574;11.170;2023-03-01T15:07:38;8.80;58.90
13409;DHT22;6775;49.574;11.170;2023-03-01T15:10:17;8.80;59.30
13409;DHT22;6775;49.574;11.170;2023-03-01T15:12:46;8.70;59.60
13409;DHT22;6775;49.574;11.170;2023-03-01T15:15:34;8.70;60.50
13409;DHT22;6775;49.574;11.170;2023-03-01T15:18:05;8.60;60.70
13409;DHT22;6775;49.574;11.170;2023-03-01T15:20:34;8.60;60.60
13409;DHT22;6775;49.574;11.170;2023-03-01T15:23:05;8.50;60.50
13409;DHT22;6775;49.574;11.170;2023-03-01T15:25:34;8.40;61.10
13409;DHT22;6775;49.574;11.170;2023-03-01T15:28:03;8.40;61.70
13409;DHT22;6775;49.574;11.170;2023-03-01T15:30:33;8.30;62.40
13409;DHT22;6775;49.574;11.170;2023-03-01T15:33:25;8.30;62.60
13409;DHT22;6775;49.574;11.170;2023-03-01T15:35:56;8.20;63.20
13409;DHT22;6775;49.574;11.170;2023-03-01T15:38:30;8.20;62.90
13409;DHT22;6775;49.574;11.170;2023-03-01T15:41:01;8.20;63.60
13409;DHT22;6775;49.574;11.170;2023-03-01T15:43:40;8.10;63.20
13409;DHT22;6775;49.574;11.170;2023-03-01T15:46:18;8.10;63.70
13409;DHT22;6775;49.574;11.170;2023-03-01T15:48:47;8.00;63.60
13409;DHT22;6775;49.574;11.170;2023-03-01T15:51:17;8.00;64.20
13409;DHT22;6775;49.574;11.170;2023-03-01T15:53:49;8.00;65.20
13409;DHT22;6775;49.574;11.170;2023-03-01T15:56:21;7.90;65.10
13409;DHT22;6775;49.574;11.170;2023-03-01T15:58:49;7.80;65.30
13409;DHT22;6775;49.574;11.170;2023-03-01T16:01:17;7.80;65.90
13409;DHT22;6775;49.574;11.170;2023-03-01T16:03:45;7.70;66.10
13409;DHT22;6775;49.574;11.170;2023-03-01T16:06:13;7.70;66.40
13409;DHT22;6775;49.574;11.170;2023-03-01T16:08:41;7.60;66.80
13409;DHT22;6775;49.574;11.170;2023-03-01T16:11:20;7.60;67.40
13409;DHT22;6775;49.574;11.170;2023-03-01T16:13:49;7.50;67.80
13409;DHT22;6775;49.574;11.170;2023-03-01T16:16:17;7.50;68.50
13409;DHT22;6775;49.574;11.170;2023-03-01T16:18:46;7.40;69.00